sensor_id;sensor_type;location;lat;lon;timestamp;P1;durP1;ratioP1;P2;durP2;ratioP2
67712;SDS011;67640;55.784;49.138;2024-02-21T00:03:51;20.70;;;6.30;;
67712;SDS011;67640;55.784;49.138;2024-02-21T00:08:56;23.87;;;6.05;;
67712;SDS011;67640;55.784;49.138;2024-02-21T00:14:15;15.38;;;5.62;;
67712;SDS011;67640;55.784;49.138;2024-02-21T00:19:34;17.70;;;5.80;;
67712;SDS011;67640;55.784;49.138;2024-02-21T00:24:53;15.40;;;5.37;;
67712;SDS011;67640;55.784;49.138;2024-02-21T00:30:12;21.27;;;6.23;;
67712;SDS011;67640;55.784;49.138;2024-02-21T00:35:17;20.95;;;6.12;;
67712;SDS011;67640;55.784;49.138;2024-02-21T00:40:22;14.70;;;5.12;;
67712;SDS011;67640;55.784;49.138;2024-02-21T00:45:30;16.57;;;5.30;;
67712;SDS011;67640;55.784;49.138;2024-02-21T00:51:08;15.70;;;5.90;;
67712;SDS011;67640;55.784;49.138;2024-02-21T00:56:13;17.37;;;6.47;;
67712;SDS011;67640;55.784;49.138;2024-02-21T01:01:31;19.73;;;5.53;;
67712;SDS011;67640;55.784;49.138;2024-02-21T01:06:36;18.20;;;6.13;;
67712;SDS011;67640;55.784;49.138;2024-02-21T01:11:55;14.38;;;5.50;;
67712;SDS011;67640;55.784;49.138;2024-02-21T01:17:13;14.85;;;5.75;;
67712;SDS011;67640;55.784;49.138;2024-02-21T01:22:18;23.60;;;7.53;;
67712;SDS011;67640;55.784;49.138;2024-02-21T01:27:24;22.22;;;6.85;;
67712;SDS011;67640;55.784;49.138;2024-02-21T01:32:29;25.97;;;6.75;;
67712;SDS011;67640;55.784;49.138;2024-02-21T01:37:48;15.35;;;6.05;;
67712;SDS011;67640;55.784;49.138;2024-02-21T01:48:33;14.68;;;5.33;;
67712;SDS011;67640;55.784;49.138;2024-02-21T01:53:53;17.57;;;6.20;;
67712;SDS011;67640;55.784;49.138;2024-02-21T01:58:59;14.75;;;6.20;;
67712;SDS011;67640;55.784;49.138;2024-02-21T02:04:19;23.20;;;8.27;;
67712;SDS011;67640;55.784;49.138;2024-02-21T02:09:38;22.95;;;7.35;;
67712;SDS011;67640;55.784;49.138;2024-02-21T02:14:43;18.92;;;6.87;;
67712;SDS011;67640;55.784;49.138;2024-02-21T02:20:03;18.90;;;6.80;;
67712;SDS011;67640;55.784;49.138;2024-02-21T02:25:08;20.60;;;8.23;;
67712;SDS011;67640;55.784;49.138;2024-02-21T02:30:27;18.15;;;6.78;;
67712;SDS011;67640;55.784;49.138;2024-02-21T02:35:32;21.50;;;8.07;;
67712;SDS011;67640;55.784;49.138;2024-02-21T02:40:39;21.30;;;7.05;;
67712;SDS011;67640;55.784;49.138;2024-02-21T02:45:58;19.62;;;7.97;;
67712;SDS011;67640;55.784;49.138;2024-02-21T02:51:17;21.65;;;7.28;;
67712;SDS011;67640;55.784;49.138;2024-02-21T02:56:36;23.15;;;8.68;;
67712;SDS011;67640;55.784;49.138;2024-02-21T03:01:41;21.90;;;8.23;;
67712;SDS011;67640;55.784;49.138;2024-02-21T03:07:11;21.03;;;7.10;;
67712;SDS011;67640;55.784;49.138;2024-02-21T03:12:16;24.27;;;7.92;;
67712;SDS011;67640;55.784;49.138;2024-02-21T03:17:23;22.57;;;8.47;;
67712;SDS011;67640;55.784;49.138;2024-02-21T03:22:42;26.20;;;8.60;;
67712;SDS011;67640;55.784;49.138;2024-02-21T03:28:01;29.52;;;7.62;;
67712;SDS011;67640;55.784;49.138;2024-02-21T03:33:19;22.93;;;7.15;;
67712;SDS011;67640;55.784;49.138;2024-02-21T03:38:24;20.88;;;8.55;;
67712;SDS011;67640;55.784;49.138;2024-02-21T03:43:30;23.50;;;8.90;;
67712;SDS011;67640;55.784;49.138;2024-02-21T03:49:04;22.50;;;8.25;;
67712;SDS011;67640;55.784;49.138;2024-02-21T03:54:09;20.57;;;7.90;;
67712;SDS011;67640;55.784;49.138;2024-02-21T03:59:28;22.93;;;8.43;;
67712;SDS011;67640;55.784;49.138;2024-02-21T04:04:47;21.83;;;7.20;;
67712;SDS011;67640;55.784;49.138;2024-02-21T04:10:26;15.80;;;7.20;;
67712;SDS011;67640;55.784;49.138;2024-02-21T04:15:45;32.95;;;8.13;;
67712;SDS011;67640;55.784;49.138;2024-02-21T04:20:52;22.13;;;7.67;;
67712;SDS011;67640;55.784;49.138;2024-02-21T04:26:10;20.90;;;7.28;;
67712;SDS011;67640;55.784;49.138;2024-02-21T04:31:15;21.85;;;7.87;;
67712;SDS011;67640;55.784;49.138;2024-02-21T04:36:34;22.73;;;8.23;;
67712;SDS011;67640;55.784;49.138;2024-02-21T04:41:53;24.30;;;7.78;;
67712;SDS011;67640;55.784;49.138;2024-02-21T04:47:13;20.20;;;7.83;;
67712;SDS011;67640;55.784;49.138;2024-02-21T04:52:32;20.82;;;7.83;;
67712;SDS011;67640;55.784;49.138;2024-02-21T04:57:37;17.42;;;6.45;;
67712;SDS011;67640;55.784;49.138;2024-02-21T05:02:54;16.32;;;5.95;;
67712;SDS011;67640;55.784;49.138;2024-02-21T05:08:00;16.70;;;6.57;;
67712;SDS011;67640;55.784;49.138;2024-02-21T05:13:06;14.50;;;6.25;;
67712;SDS011;67640;55.784;49.138;2024-02-21T05:18:25;18.77;;;7.30;;
67712;SDS011;67640;55.784;49.138;2024-02-21T05:23:30;18.27;;;6.33;;
67712;SDS011;67640;55.784;49.138;2024-02-21T05:28:49;16.55;;;6.53;;
67712;SDS011;67640;55.784;49.138;2024-02-21T05:34:08;14.50;;;5.17;;
67712;SDS011;67640;55.784;49.138;2024-02-21T05:39:27;18.98;;;7.45;;
67712;SDS011;67640;55.784;49.138;2024-02-21T05:44:46;19.32;;;6.80;;
67712;SDS011;67640;55.784;49.138;2024-02-21T05:49:51;21.43;;;7.50;;
67712;SDS011;67640;55.784;49.138;2024-02-21T05:54:57;20.35;;;7.37;;
67712;SDS011;67640;55.784;49.138;2024-02-21T06:00:15;26.70;;;7.25;;
67712;SDS011;67640;55.784;49.138;2024-02-21T06:05:20;15.20;;;6.47;;
67712;SDS011;67640;55.784;49.138;2024-02-21T06:10:25;16.50;;;6.22;;
67712;SDS011;67640;55.784;49.138;2024-02-21T06:15:33;16.57;;;7.00;;
67712;SDS011;67640;55.784;49.138;2024-02-21T06:20:52;23.10;;;6.50;;
67712;SDS011;67640;55.784;49.138;2024-02-21T06:26:11;18.23;;;7.15;;
67712;SDS011;67640;55.784;49.138;2024-02-21T06:31:16;18.07;;;7.30;;
67712;SDS011;67640;55.784;49.138;2024-02-21T06:36:26;20.82;;;7.22;;
67712;SDS011;67640;55.784;49.138;2024-02-21T06:41:45;24.82;;;8.50;;
67712;SDS011;67640;55.784;49.138;2024-02-21T06:47:04;20.93;;;8.03;;
67712;SDS011;67640;55.784;49.138;2024-02-21T06:52:23;18.30;;;7.78;;
67712;SDS011;67640;55.784;49.138;2024-02-21T07:02:52;18.37;;;7.47;;
67712;SDS011;67640;55.784;49.138;2024-02-21T07:07:58;21.85;;;8.23;;
67712;SDS011;67640;55.784;49.138;2024-02-21T07:13:03;17.47;;;7.60;;
67712;SDS011;67640;55.784;49.138;2024-02-21T07:18:21;18.77;;;8.15;;
67712;SDS011;67640;55.784;49.138;2024-02-21T07:23:26;19.57;;;8.60;;
67712;SDS011;67640;55.784;49.138;2024-02-21T07:28:45;22.10;;;8.37;;
67712;SDS011;67640;55.784;49.138;2024-02-21T07:34:04;18.77;;;7.83;;
67712;SDS011;67640;55.784;49.138;2024-02-21T07:39:24;29.57;;;7.90;;
67712;SDS011;67640;55.784;49.138;2024-02-21T07:44:29;25.37;;;7.73;;
67712;SDS011;67640;55.784;49.138;2024-02-21T07:55:13;22.37;;;8.03;;
67712;SDS011;67640;55.784;49.138;2024-02-21T08:00:32;24.47;;;8.93;;
67712;SDS011;67640;55.784;49.138;2024-02-21T08:05:51;21.35;;;7.42;;
67712;SDS011;67640;55.784;49.138;2024-02-21T08:10:56;23.63;;;8.17;;
67712;SDS011;67640;55.784;49.138;2024-02-21T08:16:01;23.10;;;8.08;;
67712;SDS011;67640;55.784;49.138;2024-02-21T08:21:08;23.77;;;8.85;;
67712;SDS011;67640;55.784;49.138;2024-02-21T08:26:27;25.27;;;8.73;;
67712;SDS011;67640;55.784;49.138;2024-02-21T08:31:45;26.07;;;8.73;;
67712;SDS011;67640;55.784;49.138;2024-02-21T08:36:50;24.65;;;9.50;;
67712;SDS011;67640;55.784;49.138;2024-02-21T08:41:55;21.30;;;8.13;;
67712;SDS011;67640;55.784;49.138;2024-02-21T08:47:15;21.07;;;8.60;;
67712;SDS011;67640;55.784;49.138;2024-02-21T08:52:53;20.00;;;7.35;;
67712;SDS011;67640;55.784;49.138;2024-02-21T08:58:18;22.87;;;7.97;;
67712;SDS011;67640;55.784;49.138;2024-02-21T09:03:37;18.40;;;7.15;;
67712;SDS011;67640;55.784;49.138;2024-02-21T09:08:59;24.93;;;8.43;;
67712;SDS011;67640;55.784;49.138;2024-02-21T09:14:05;22.22;;;8.83;;
67712;SDS011;67640;55.784;49.138;2024-02-21T09:19:10;21.12;;;8.98;;
67712;SDS011;67640;55.784;49.138;2024-02-21T09:24:15;20.00;;;7.40;;
67712;SDS011;67640;55.784;49.138;2024-02-21T09:29:34;26.23;;;8.58;;
67712;SDS011;67640;55.784;49.138;2024-02-21T09:34:57;21.02;;;8.00;;
67712;SDS011;67640;55.784;49.138;2024-02-21T09:40:02;21.03;;;7.80;;
67712;SDS011;67640;55.784;49.138;2024-02-21T09:50:47;23.17;;;9.10;;
67712;SDS011;67640;55.784;49.138;2024-02-21T09:56:07;23.27;;;8.60;;
67712;SDS011;67640;55.784;49.138;2024-02-21T10:01:27;24.72;;;8.63;;
67712;SDS011;67640;55.784;49.138;2024-02-21T10:06:32;29.07;;;10.30;;
67712;SDS011;67640;55.784;49.138;2024-02-21T10:11:37;24.90;;;10.10;;
67712;SDS011;67640;55.784;49.138;2024-02-21T10:16:42;22.23;;;8.80;;
67712;SDS011;67640;55.784;49.138;2024-02-21T10:22:01;28.77;;;9.47;;
67712;SDS011;67640;55.784;49.138;2024-02-21T10:27:06;22.93;;;9.23;;
67712;SDS011;67640;55.784;49.138;2024-02-21T10:32:26;22.60;;;9.43;;
67712;SDS011;67640;55.784;49.138;2024-02-21T10:37:45;25.02;;;9.38;;
67712;SDS011;67640;55.784;49.138;2024-02-21T10:43:04;21.80;;;9.43;;
67712;SDS011;67640;55.784;49.138;2024-02-21T10:48:29;21.85;;;8.93;;
67712;SDS011;67640;55.784;49.138;2024-02-21T10:53:36;27.23;;;9.53;;
67712;SDS011;67640;55.784;49.138;2024-02-21T10:58:52;28.45;;;9.95;;
67712;SDS011;67640;55.784;49.138;2024-02-21T11:03:59;22.25;;;7.87;;
67712;SDS011;67640;55.784;49.138;2024-02-21T11:09:19;21.17;;;8.13;;
67712;SDS011;67640;55.784;49.138;2024-02-21T11:14:39;34.05;;;9.30;;
67712;SDS011;67640;55.784;49.138;2024-02-21T11:20:10;20.72;;;6.95;;
67712;SDS011;67640;55.784;49.138;2024-02-21T11:25:22;28.10;;;8.08;;
67712;SDS011;67640;55.784;49.138;2024-02-21T11:36:05;21.33;;;8.23;;
67712;SDS011;67640;55.784;49.138;2024-02-21T11:41:11;27.83;;;8.97;;
67712;SDS011;67640;55.784;49.138;2024-02-21T11:46:30;22.85;;;8.28;;
67712;SDS011;67640;55.784;49.138;2024-02-21T11:51:57;20.97;;;8.13;;
67712;SDS011;67640;55.784;49.138;2024-02-21T11:57:10;24.98;;;8.35;;
67712;SDS011;67640;55.784;49.138;2024-02-21T12:02:29;24.82;;;8.25;;
67712;SDS011;67640;55.784;49.138;2024-02-21T12:07:36;22.10;;;7.93;;
67712;SDS011;67640;55.784;49.138;2024-02-21T12:13:04;33.73;;;9.03;;
67712;SDS011;67640;55.784;49.138;2024-02-21T12:18:02;25.72;;;9.15;;
67712;SDS011;67640;55.784;49.138;2024-02-21T12:23:08;20.90;;;7.87;;
67712;SDS011;67640;55.784;49.138;2024-02-21T12:28:14;28.00;;;9.13;;
67712;SDS011;67640;55.784;49.138;2024-02-21T12:33:33;26.57;;;9.43;;
67712;SDS011;67640;55.784;49.138;2024-02-21T12:38:52;34.78;;;9.63;;
67712;SDS011;67640;55.784;49.138;2024-02-21T12:44:11;33.00;;;9.83;;
67712;SDS011;67640;55.784;49.138;2024-02-21T12:49:16;29.77;;;9.47;;
67712;SDS011;67640;55.784;49.138;2024-02-21T12:54:22;18.75;;;6.45;;
67712;SDS011;67640;55.784;49.138;2024-02-21T12:59:41;21.85;;;7.40;;
67712;SDS011;67640;55.784;49.138;2024-02-21T13:04:46;22.52;;;7.25;;
67712;SDS011;67640;55.784;49.138;2024-02-21T13:10:07;24.92;;;8.28;;
67712;SDS011;67640;55.784;49.138;2024-02-21T13:15:12;26.93;;;8.60;;
67712;SDS011;67640;55.784;49.138;2024-02-21T13:20:31;26.57;;;9.20;;
67712;SDS011;67640;55.784;49.138;2024-02-21T13:25:36;23.95;;;7.75;;
67712;SDS011;67640;55.784;49.138;2024-02-21T13:30:42;22.15;;;7.85;;
67712;SDS011;67640;55.784;49.138;2024-02-21T13:36:01;27.35;;;8.35;;
67712;SDS011;67640;55.784;49.138;2024-02-21T13:41:26;19.13;;;7.47;;
67712;SDS011;67640;55.784;49.138;2024-02-21T13:46:45;27.30;;;8.98;;
67712;SDS011;67640;55.784;49.138;2024-02-21T13:51:50;28.80;;;8.55;;
67712;SDS011;67640;55.784;49.138;2024-02-21T13:57:09;30.43;;;7.90;;
67712;SDS011;67640;55.784;49.138;2024-02-21T14:02:14;30.02;;;8.35;;
67712;SDS011;67640;55.784;49.138;2024-02-21T14:07:20;21.50;;;7.92;;
67712;SDS011;67640;55.784;49.138;2024-02-21T14:12:25;26.87;;;7.83;;
67712;SDS011;67640;55.784;49.138;2024-02-21T14:17:43;20.50;;;8.60;;
67712;SDS011;67640;55.784;49.138;2024-02-21T14:22:49;28.17;;;9.13;;
67712;SDS011;67640;55.784;49.138;2024-02-21T14:28:08;26.83;;;7.57;;
67712;SDS011;67640;55.784;49.138;2024-02-21T14:33:30;25.65;;;8.65;;
67712;SDS011;67640;55.784;49.138;2024-02-21T14:39:09;29.27;;;8.03;;
67712;SDS011;67640;55.784;49.138;2024-02-21T14:44:28;21.93;;;8.28;;
67712;SDS011;67640;55.784;49.138;2024-02-21T14:49:33;24.23;;;8.48;;
67712;SDS011;67640;55.784;49.138;2024-02-21T14:54:38;26.93;;;8.87;;
67712;SDS011;67640;55.784;49.138;2024-02-21T14:59:48;24.90;;;8.55;;
67712;SDS011;67640;55.784;49.138;2024-02-21T15:05:07;23.18;;;8.98;;
67712;SDS011;67640;55.784;49.138;2024-02-21T15:10:27;22.80;;;8.95;;
67712;SDS011;67640;55.784;49.138;2024-02-21T15:15:33;30.35;;;9.05;;
67712;SDS011;67640;55.784;49.138;2024-02-21T15:20:38;22.10;;;8.17;;
67712;SDS011;67640;55.784;49.138;2024-02-21T15:25:57;18.70;;;6.97;;
67712;SDS011;67640;55.784;49.138;2024-02-21T15:31:03;24.10;;;7.83;;
67712;SDS011;67640;55.784;49.138;2024-02-21T15:36:10;23.00;;;8.40;;
67712;SDS011;67640;55.784;49.138;2024-02-21T15:41:29;25.25;;;8.13;;
67712;SDS011;67640;55.784;49.138;2024-02-21T15:46:48;21.90;;;8.55;;
67712;SDS011;67640;55.784;49.138;2024-02-21T15:51:54;25.15;;;8.20;;
67712;SDS011;67640;55.784;49.138;2024-02-21T15:57:00;22.42;;;8.68;;
67712;SDS011;67640;55.784;49.138;2024-02-21T16:02:19;31.20;;;8.75;;
67712;SDS011;67640;55.784;49.138;2024-02-21T16:07:40;27.93;;;9.23;;
67712;SDS011;67640;55.784;49.138;2024-02-21T16:13:00;16.80;;;5.40;;
67712;SDS011;67640;55.784;49.138;2024-02-21T16:18:05;20.25;;;7.65;;
67712;SDS011;67640;55.784;49.138;2024-02-21T16:23:10;18.75;;;7.00;;
67712;SDS011;67640;55.784;49.138;2024-02-21T16:28:29;19.25;;;7.67;;
67712;SDS011;67640;55.784;49.138;2024-02-21T16:33:38;20.65;;;8.13;;
67712;SDS011;67640;55.784;49.138;2024-02-21T16:38:43;16.97;;;6.67;;
67712;SDS011;67640;55.784;49.138;2024-02-21T16:44:02;27.25;;;9.35;;
67712;SDS011;67640;55.784;49.138;2024-02-21T16:49:21;23.30;;;9.03;;
67712;SDS011;67640;55.784;49.138;2024-02-21T16:54:40;22.42;;;8.30;;
67712;SDS011;67640;55.784;49.138;2024-02-21T16:59:46;19.27;;;8.48;;
67712;SDS011;67640;55.784;49.138;2024-02-21T17:05:05;21.73;;;8.88;;
67712;SDS011;67640;55.784;49.138;2024-02-21T17:10:10;22.25;;;8.65;;
67712;SDS011;67640;55.784;49.138;2024-02-21T17:15:16;29.15;;;9.63;;
67712;SDS011;67640;55.784;49.138;2024-02-21T17:20:35;24.97;;;9.40;;
67712;SDS011;67640;55.784;49.138;2024-02-21T17:25:54;24.07;;;8.88;;
67712;SDS011;67640;55.784;49.138;2024-02-21T17:31:13;20.90;;;7.80;;
67712;SDS011;67640;55.784;49.138;2024-02-21T17:36:18;25.52;;;9.78;;
67712;SDS011;67640;55.784;49.138;2024-02-21T17:41:23;19.20;;;7.15;;
67712;SDS011;67640;55.784;49.138;2024-02-21T17:46:29;22.83;;;8.77;;
67712;SDS011;67640;55.784;49.138;2024-02-21T17:51:47;26.10;;;9.57;;
67712;SDS011;67640;55.784;49.138;2024-02-21T17:56:52;23.05;;;9.10;;
67712;SDS011;67640;55.784;49.138;2024-02-21T18:02:11;21.13;;;8.33;;
67712;SDS011;67640;55.784;49.138;2024-02-21T18:07:30;17.80;;;7.25;;
67712;SDS011;67640;55.784;49.138;2024-02-21T18:12:49;22.87;;;8.25;;
67712;SDS011;67640;55.784;49.138;2024-02-21T18:18:08;27.07;;;8.57;;
67712;SDS011;67640;55.784;49.138;2024-02-21T18:23:14;24.52;;;8.33;;
67712;SDS011;67640;55.784;49.138;2024-02-21T18:28:21;29.80;;;8.67;;
67712;SDS011;67640;55.784;49.138;2024-02-21T18:33:26;21.50;;;8.98;;
67712;SDS011;67640;55.784;49.138;2024-02-21T18:38:45;26.17;;;9.80;;
67712;SDS011;67640;55.784;49.138;2024-02-21T18:43:50;26.50;;;9.27;;
67712;SDS011;67640;55.784;49.138;2024-02-21T18:49:09;24.15;;;8.73;;
67712;SDS011;67640;55.784;49.138;2024-02-21T18:54:29;33.00;;;10.80;;
67712;SDS011;67640;55.784;49.138;2024-02-21T18:59:48;18.13;;;6.77;;
67712;SDS011;67640;55.784;49.138;2024-02-21T19:04:53;20.97;;;8.83;;
67712;SDS011;67640;55.784;49.138;2024-02-21T19:09:58;26.15;;;9.53;;
67712;SDS011;67640;55.784;49.138;2024-02-21T19:15:20;29.07;;;9.10;;
67712;SDS011;67640;55.784;49.138;2024-02-21T19:20:25;24.18;;;10.38;;
67712;SDS011;67640;55.784;49.138;2024-02-21T19:25:30;31.07;;;10.35;;
67712;SDS011;67640;55.784;49.138;2024-02-21T19:30:49;25.27;;;8.87;;
67712;SDS011;67640;55.784;49.138;2024-02-21T19:36:08;20.57;;;7.45;;
67712;SDS011;67640;55.784;49.138;2024-02-21T19:41:27;33.30;;;9.27;;
67712;SDS011;67640;55.784;49.138;2024-02-21T19:46:33;21.90;;;9.20;;
67712;SDS011;67640;55.784;49.138;2024-02-21T19:51:39;27.95;;;9.53;;
67712;SDS011;67640;55.784;49.138;2024-02-21T19:56:46;23.30;;;7.50;;
67712;SDS011;67640;55.784;49.138;2024-02-21T20:02:04;18.42;;;7.10;;
67712;SDS011;67640;55.784;49.138;2024-02-21T20:07:25;26.15;;;10.03;;
67712;SDS011;67640;55.784;49.138;2024-02-21T20:12:30;20.73;;;8.43;;
67712;SDS011;67640;55.784;49.138;2024-02-21T20:17:49;26.07;;;8.07;;
67712;SDS011;67640;55.784;49.138;2024-02-21T20:22:54;26.82;;;9.58;;
67712;SDS011;67640;55.784;49.138;2024-02-21T20:27:59;26.33;;;9.57;;
67712;SDS011;67640;55.784;49.138;2024-02-21T20:33:18;28.45;;;9.68;;
67712;SDS011;67640;55.784;49.138;2024-02-21T20:38:37;26.37;;;9.35;;
67712;SDS011;67640;55.784;49.138;2024-02-21T20:43:56;32.47;;;9.67;;
67712;SDS011;67640;55.784;49.138;2024-02-21T20:49:16;29.00;;;8.68;;
67712;SDS011;67640;55.784;49.138;2024-02-21T20:54:22;27.27;;;10.00;;
67712;SDS011;67640;55.784;49.138;2024-02-21T20:59:27;35.25;;;10.48;;
67712;SDS011;67640;55.784;49.138;2024-02-21T21:04:46;23.15;;;7.87;;
67712;SDS011;67640;55.784;49.138;2024-02-21T21:15:42;22.30;;;7.95;;
67712;SDS011;67640;55.784;49.138;2024-02-21T21:20:47;24.35;;;8.60;;
67712;SDS011;67640;55.784;49.138;2024-02-21T21:26:06;23.90;;;9.30;;
67712;SDS011;67640;55.784;49.138;2024-02-21T21:31:25;27.52;;;9.68;;
67712;SDS011;67640;55.784;49.138;2024-02-21T21:36:44;29.65;;;8.40;;
67712;SDS011;67640;55.784;49.138;2024-02-21T21:42:04;23.30;;;6.90;;
67712;SDS011;67640;55.784;49.138;2024-02-21T21:47:10;24.45;;;8.53;;
67712;SDS011;67640;55.784;49.138;2024-02-21T21:52:31;31.27;;;9.20;;
67712;SDS011;67640;55.784;49.138;2024-02-21T21:57:37;27.43;;;10.87;;
67712;SDS011;67640;55.784;49.138;2024-02-21T22:02:56;25.68;;;10.13;;
67712;SDS011;67640;55.784;49.138;2024-02-21T22:08:15;27.57;;;8.20;;
67712;SDS011;67640;55.784;49.138;2024-02-21T22:13:34;24.75;;;10.28;;
67712;SDS011;67640;55.784;49.138;2024-02-21T22:18:53;27.37;;;9.33;;
67712;SDS011;67640;55.784;49.138;2024-02-21T22:23:58;29.00;;;10.77;;
67712;SDS011;67640;55.784;49.138;2024-02-21T22:29:03;31.33;;;10.45;;
67712;SDS011;67640;55.784;49.138;2024-02-21T22:34:22;28.87;;;10.77;;
67712;SDS011;67640;55.784;49.138;2024-02-21T22:39:41;26.85;;;10.08;;
67712;SDS011;67640;55.784;49.138;2024-02-21T22:45:00;31.35;;;10.25;;
67712;SDS011;67640;55.784;49.138;2024-02-21T22:50:21;23.03;;;9.10;;
67712;SDS011;67640;55.784;49.138;2024-02-21T22:55:27;20.88;;;8.30;;
67712;SDS011;67640;55.784;49.138;2024-02-21T23:00:45;29.10;;;10.70;;
67712;SDS011;67640;55.784;49.138;2024-02-21T23:05:50;30.77;;;11.53;;
67712;SDS011;67640;55.784;49.138;2024-02-21T23:11:09;29.52;;;10.90;;
67712;SDS011;67640;55.784;49.138;2024-02-21T23:16:28;27.75;;;11.10;;
67712;SDS011;67640;55.784;49.138;2024-02-21T23:21:47;25.02;;;9.28;;
67712;SDS011;67640;55.784;49.138;2024-02-21T23:27:06;33.23;;;11.53;;
67712;SDS011;67640;55.784;49.138;2024-02-21T23:32:11;30.57;;;10.60;;
67712;SDS011;67640;55.784;49.138;2024-02-21T23:37:31;27.70;;;10.40;;
67712;SDS011;67640;55.784;49.138;2024-02-21T23:42:37;25.40;;;8.20;;
67712;SDS011;67640;55.784;49.138;2024-02-21T23:47:54;30.12;;;11.25;;
67712;SDS011;67640;55.784;49.138;2024-02-21T23:52:59;27.10;;;9.87;;
67712;SDS011;67640;55.784;49.138;2024-02-21T23:58:19;26.90;;;10.60;;
